< < Back
Terminal Aerodrome Forecast


Current Version              Previous Versions:   1  2  3  4  5  6  7  8  9  

Terminal Aerodrome Forecast

619
FTUS42 KGSP 041736
TAFCLT
TAF
KCLT 041736Z 0418/0518 30005KT P6SM FEW050 SCT250
     FM050200 02003KT P6SM SCT250
     FM051500 21005KT P6SM FEW050 SCT250=

Latest METAR

624
SAUS70 KWBC 041800 RRI
MTRCLT
METAR KCLT 041752Z 02005KT 10SM FEW050 SCT250 34/18 A2999 RMK AO2 SLP145
T03440178 10344 20239 58012


USA.gov is the U.S. government's official web portal to all federal, state and local government web resources and services.